Time;durP1;ratioP1;P1;durP2;ratioP2;P2;SDS_P1;SDS_P2;PMS_P1;PMS_P2;Temp;Humidity;BMP_temperature;BMP_pressure;BME280_temperature;BME280_humidity;BME280_pressure;Samples;Min_cycle;Max_cycle;Signal;HPM_P1;HPM_P2
2021/08/08 00:00:46;0.00;0.00;0.62;0.00;0.00;0.62;4.20;1.87;;;25.00;38.70;;;;;;2252280;61;20377;-58
2021/08/08 00:03:12;0.00;0.00;0.62;0.00;0.00;0.62;3.23;2.30;;;25.00;38.80;;;;;;2253394;61;20361;-58
2021/08/08 00:05:39;0.00;0.00;0.62;0.00;0.00;0.62;2.90;1.67;;;25.00;38.80;;;;;;2256155;61;20601;-60
2021/08/08 00:08:07;0.00;0.00;0.62;0.00;0.00;0.62;3.50;1.93;;;25.00;38.80;;;;;;2252445;61;20360;-59
2021/08/08 00:10:33;0.00;0.00;0.62;0.00;0.00;0.62;2.97;1.80;;;24.90;38.80;;;;;;2253243;61;20381;-58
2021/08/08 00:13:00;0.00;0.00;0.62;0.00;0.00;0.62;3.73;2.23;;;24.90;38.80;;;;;;2253452;61;20639;-58
2021/08/08 00:15:26;0.00;0.00;0.62;0.00;0.00;0.62;2.63;2.00;;;24.90;38.80;;;;;;2252283;61;20749;-59
2021/08/08 00:17:53;0.00;0.00;0.62;0.00;0.00;0.62;2.90;1.77;;;24.90;38.90;;;;;;2253419;61;20601;-59
2021/08/08 00:20:20;0.00;0.00;0.62;0.00;0.00;0.62;2.63;1.80;;;24.90;39.00;;;;;;2256023;61;20484;-57
2021/08/08 00:22:46;0.00;0.00;0.62;0.00;0.00;0.62;2.03;1.70;;;24.90;39.00;;;;;;2252418;61;20744;-58
2021/08/08 00:25:14;0.00;0.00;0.62;0.00;0.00;0.62;2.40;1.60;;;24.90;38.80;;;;;;2253334;61;20384;-59
2021/08/08 00:27:40;0.00;0.00;0.62;0.00;0.00;0.62;2.63;1.67;;;24.90;38.80;;;;;;2253237;61;20689;-58
2021/08/08 00:30:08;0.00;0.00;0.62;0.00;0.00;0.62;2.80;1.80;;;24.80;38.70;;;;;;2252386;61;20473;-59
2021/08/08 00:32:38;0.00;0.00;0.62;0.00;0.00;0.62;2.43;1.30;;;24.80;38.70;;;;;;2254109;61;20681;-59
2021/08/08 00:35:07;0.00;0.00;0.62;0.00;0.00;0.62;1.93;1.60;;;24.80;38.60;;;;;;2253677;61;20380;-59
2021/08/08 00:37:34;0.00;0.00;0.62;0.00;0.00;0.62;2.80;1.80;;;24.70;38.40;;;;;;2252550;61;20486;-59
2021/08/08 00:40:01;0.00;0.00;0.62;0.00;0.00;0.62;2.10;1.67;;;24.70;38.30;;;;;;2256750;61;20727;-59
2021/08/08 00:42:31;0.00;0.00;0.62;0.00;0.00;0.62;2.33;1.50;;;24.70;38.20;;;;;;2256851;61;20383;-59
2021/08/08 00:44:59;0.00;0.00;0.62;0.00;0.00;0.62;2.43;1.50;;;24.70;38.10;;;;;;2255781;61;20440;-57
2021/08/08 00:47:27;0.00;0.00;0.62;0.00;0.00;0.62;3.00;1.70;;;24.70;38.10;;;;;;2256811;61;20356;-57
2021/08/08 00:49:53;0.00;0.00;0.62;0.00;0.00;0.62;1.97;1.40;;;24.70;38.00;;;;;;2256594;61;20376;-59
2021/08/08 00:52:20;0.00;0.00;0.62;0.00;0.00;0.62;1.50;1.17;;;24.70;38.00;;;;;;2255886;61;20360;-59
2021/08/08 00:54:46;0.00;0.00;0.62;0.00;0.00;0.62;1.93;1.30;;;24.70;37.90;;;;;;2256785;61;20403;-60
2021/08/08 00:57:13;0.00;0.00;0.62;0.00;0.00;0.62;1.80;1.13;;;24.70;37.90;;;;;;2256862;61;20360;-59
2021/08/08 00:59:43;0.00;0.00;0.62;0.00;0.00;0.62;2.03;1.47;;;24.70;37.90;;;;;;2255770;61;20352;-58
2021/08/08 01:02:11;0.00;0.00;0.62;0.00;0.00;0.62;4.17;1.60;;;24.70;37.80;;;;;;2253959;61;20448;-60
2021/08/08 01:04:47;0.00;0.00;0.62;0.00;0.00;0.62;1.93;1.13;;;24.60;37.70;;;;;;2256722;61;20685;-59
2021/08/08 01:07:20;0.00;0.00;0.62;0.00;0.00;0.62;2.30;1.30;;;24.60;37.70;;;;;;2255679;61;20363;-59
2021/08/08 01:09:51;0.00;0.00;0.62;0.00;0.00;0.62;1.80;1.30;;;24.60;37.70;;;;;;2256576;61;20408;-58
2021/08/08 01:12:21;0.00;0.00;0.62;0.00;0.00;0.62;2.20;1.33;;;24.60;37.70;;;;;;2256767;61;20363;-57
2021/08/08 01:14:52;0.00;0.00;0.62;0.00;0.00;0.62;1.40;1.00;;;24.60;37.70;;;;;;2255731;61;20387;-58
2021/08/08 01:17:21;0.00;0.00;0.62;0.00;0.00;0.62;4.30;1.73;;;24.60;37.70;;;;;;2256775;61;20356;-59
2021/08/08 01:19:57;0.00;0.00;0.62;0.00;0.00;0.62;2.23;1.33;;;24.60;37.70;;;;;;2253732;61;20384;-58
2021/08/08 01:22:28;0.00;0.00;0.62;0.00;0.00;0.62;2.23;1.67;;;24.60;37.60;;;;;;2255747;61;20356;-59
2021/08/08 01:24:57;0.00;0.00;0.62;0.00;0.00;0.62;2.43;1.47;;;24.60;38.30;;;;;;2254007;61;20352;-59
2021/08/08 01:27:25;0.00;0.00;0.62;0.00;0.00;0.62;2.27;1.17;;;24.60;37.60;;;;;;2256611;61;20353;-58
2021/08/08 01:29:53;0.00;0.00;0.62;0.00;0.00;0.62;1.80;1.27;;;24.60;37.50;;;;;;2252209;61;20450;-59
2021/08/08 01:32:19;0.00;0.00;0.62;0.00;0.00;0.62;2.17;1.33;;;24.60;37.50;;;;;;2253455;61;20951;-59
2021/08/08 01:34:47;0.00;0.00;0.62;0.00;0.00;0.62;1.90;1.17;;;24.60;37.50;;;;;;2256708;61;20450;-57
2021/08/08 01:37:19;0.00;0.00;0.62;0.00;0.00;0.62;1.67;1.37;;;24.60;38.20;;;;;;2255730;61;20357;-56
2021/08/08 01:39:55;0.00;0.00;0.62;0.00;0.00;0.62;1.73;1.30;;;24.60;37.40;;;;;;2256634;61;20640;-60
2021/08/08 01:42:26;0.00;0.00;0.62;0.00;0.00;0.62;1.60;1.20;;;24.50;37.30;;;;;;2256736;61;20356;-59
2021/08/08 01:44:55;0.00;0.00;0.62;0.00;0.00;0.62;4.50;1.37;;;24.50;37.20;;;;;;2255518;61;20349;-58
2021/08/08 01:47:29;0.00;0.00;0.62;0.00;0.00;0.62;1.60;1.00;;;24.50;37.20;;;;;;2256580;61;20364;-60
2021/08/08 01:50:01;0.00;0.00;0.62;0.00;0.00;0.62;1.67;0.90;;;24.50;37.20;;;;;;2256443;61;20760;-60
2021/08/08 01:52:30;0.00;0.00;0.62;0.00;0.00;0.62;1.97;1.40;;;24.50;37.30;;;;;;2255650;61;20367;-58
2021/08/08 01:54:57;0.00;0.00;0.62;0.00;0.00;0.62;1.80;1.07;;;24.40;37.10;;;;;;2256580;61;20410;-60
2021/08/08 01:57:34;0.00;0.00;0.62;0.00;0.00;0.62;2.03;1.10;;;24.40;37.10;;;;;;2256640;61;20431;-59
2021/08/08 02:00:11;0.00;0.00;0.62;0.00;0.00;0.62;1.40;0.90;;;24.40;37.10;;;;;;2252660;61;20632;-59
2021/08/08 02:02:50;0.00;0.00;0.62;0.00;0.00;0.62;1.83;1.23;;;24.40;37.10;;;;;;2253845;61;20368;-58
2021/08/08 02:05:20;0.00;0.00;0.62;0.00;0.00;0.62;2.60;1.30;;;24.40;37.00;;;;;;2253311;61;20357;-60
2021/08/08 02:07:47;0.00;0.00;0.62;0.00;0.00;0.62;3.77;1.20;;;24.30;36.80;;;;;;2255430;61;20367;-59
2021/08/08 02:10:16;0.00;0.00;0.62;0.00;0.00;0.62;1.73;1.13;;;24.30;36.70;;;;;;2256438;61;20381;-59
2021/08/08 02:12:45;0.00;0.00;0.62;0.00;0.00;0.62;2.90;1.00;;;24.40;36.80;;;;;;2256603;61;20356;-58
2021/08/08 02:15:12;0.00;0.00;0.62;0.00;0.00;0.62;1.43;1.00;;;24.30;36.70;;;;;;2252918;61;20603;-60
2021/08/08 02:17:49;0.00;0.00;0.62;0.00;0.00;0.62;1.80;1.17;;;24.30;36.70;;;;;;2256648;61;20359;-60
2021/08/08 02:20:18;0.00;0.00;0.62;0.00;0.00;0.62;1.50;1.00;;;24.30;36.70;;;;;;2256294;61;20387;-58
2021/08/08 02:22:48;0.00;0.00;0.62;0.00;0.00;0.62;3.27;1.27;;;24.30;36.70;;;;;;2255647;61;20438;-57
2021/08/08 02:25:16;0.00;0.00;0.62;0.00;0.00;0.62;2.40;1.00;;;24.30;36.70;;;;;;2253312;61;20345;-61
2021/08/08 02:27:45;0.00;0.00;0.62;0.00;0.00;0.62;1.63;1.10;;;24.30;36.80;;;;;;2253585;61;20432;-58
2021/08/08 02:30:37;0.00;0.00;0.62;0.00;0.00;0.62;1.80;1.03;;;24.30;36.80;;;;;;2255681;61;20387;-56
2021/08/08 02:33:04;0.00;0.00;0.62;0.00;0.00;0.62;2.73;1.10;;;24.20;36.80;;;;;;2256443;61;20395;-58
2021/08/08 02:35:35;0.00;0.00;0.62;0.00;0.00;0.62;2.43;1.30;;;24.20;36.80;;;;;;2256269;61;20427;-57
2021/08/08 02:38:02;0.00;0.00;0.62;0.00;0.00;0.62;1.70;1.10;;;24.20;36.70;;;;;;2256148;61;20431;-56
2021/08/08 02:40:29;0.00;0.00;0.62;0.00;0.00;0.62;1.93;1.13;;;24.20;36.70;;;;;;2256337;61;20376;-57
2021/08/08 02:42:59;0.00;0.00;0.62;0.00;0.00;0.62;2.90;1.20;;;24.20;36.60;;;;;;2256320;61;20357;-59
2021/08/08 02:45:26;0.00;0.00;0.62;0.00;0.00;0.62;2.03;1.20;;;24.20;36.60;;;;;;2256033;61;20459;-58
2021/08/08 02:47:56;0.00;0.00;0.62;0.00;0.00;0.62;2.67;1.00;;;24.20;36.50;;;;;;2256377;61;20349;-55
2021/08/08 02:50:22;0.00;0.00;0.62;0.00;0.00;0.62;2.07;1.20;;;24.20;36.50;;;;;;2256050;61;20455;-60
2021/08/08 02:52:52;0.00;0.00;0.62;0.00;0.00;0.62;1.70;1.10;;;24.10;36.50;;;;;;2255905;61;20388;-57
2021/08/08 02:55:18;0.00;0.00;0.62;0.00;0.00;0.62;1.57;0.97;;;24.10;36.60;;;;;;2256353;61;20380;-56
2021/08/08 02:57:51;0.00;0.00;0.62;0.00;0.00;0.62;2.30;1.20;;;24.10;36.60;;;;;;2252440;61;20512;-57
2021/08/08 03:00:19;0.00;0.00;0.62;0.00;0.00;0.62;2.80;1.40;;;24.00;36.60;;;;;;2256006;61;20748;-56
2021/08/08 03:02:46;0.00;0.00;0.62;0.00;0.00;0.62;3.00;1.20;;;24.00;36.60;;;;;;2253551;61;20371;-56
2021/08/08 03:05:13;0.00;0.00;0.62;0.00;0.00;0.62;1.90;0.90;;;24.00;36.60;;;;;;2256027;61;20460;-57
2021/08/08 03:07:40;0.00;0.00;0.62;0.00;0.00;0.62;3.83;1.40;;;24.00;36.60;;;;;;2256133;61;20361;-55
2021/08/08 03:10:09;0.00;0.00;0.62;0.00;0.00;0.62;2.43;1.00;;;24.00;36.60;;;;;;2255929;61;20380;-59
2021/08/08 03:12:36;0.00;0.00;0.62;0.00;0.00;0.62;1.40;1.00;;;24.00;36.60;;;;;;2256187;61;20434;-60
2021/08/08 03:15:03;0.00;0.00;0.62;0.00;0.00;0.62;1.53;1.00;;;24.00;36.70;;;;;;2253178;61;20380;-57
2021/08/08 03:17:31;0.00;0.00;0.62;0.00;0.00;0.62;4.00;1.20;;;23.90;36.60;;;;;;2253018;61;20361;-59
2021/08/08 03:19:58;0.00;0.00;0.62;0.00;0.00;0.62;2.40;1.13;;;23.90;36.70;;;;;;2256131;61;20384;-60
2021/08/08 03:22:25;0.00;0.00;0.62;0.00;0.00;0.62;2.00;1.30;;;23.90;36.70;;;;;;2255891;61;20760;-58
2021/08/08 03:24:52;0.00;0.00;0.62;0.00;0.00;0.62;1.70;1.00;;;23.90;36.80;;;;;;2256184;61;20403;-57
2021/08/08 03:27:18;0.00;0.00;0.62;0.00;0.00;0.62;2.03;1.30;;;23.80;36.80;;;;;;2253538;61;20361;-59
2021/08/08 03:29:48;0.00;0.00;0.62;0.00;0.00;0.62;1.73;1.27;;;23.80;36.80;;;;;;2255561;61;20384;-59
2021/08/08 03:32:14;0.00;0.00;0.62;0.00;0.00;0.62;1.80;1.13;;;23.90;36.90;;;;;;2252928;61;20367;-60
2021/08/08 03:34:42;0.00;0.00;0.62;0.00;0.00;0.62;2.20;1.50;;;23.80;36.80;;;;;;2256387;61;20357;-59
2021/08/08 03:37:10;0.00;0.00;0.62;0.00;0.00;0.62;3.83;1.10;;;23.80;36.90;;;;;;2255537;61;20368;-59
2021/08/08 03:39:38;0.00;0.00;0.62;0.00;0.00;0.62;1.50;1.10;;;23.80;36.90;;;;;;2256087;61;20646;-60
2021/08/08 03:42:06;0.00;0.00;0.62;0.00;0.00;0.62;1.63;1.13;;;23.80;36.90;;;;;;2253577;61;20361;-60
2021/08/08 03:44:33;0.00;0.00;0.62;0.00;0.00;0.62;1.70;1.20;;;23.80;36.80;;;;;;2255385;61;20364;-60
2021/08/08 03:47:00;0.00;0.00;0.62;0.00;0.00;0.62;3.43;1.23;;;23.80;36.90;;;;;;2252908;61;20361;-57
2021/08/08 03:49:27;0.00;0.00;0.62;0.00;0.00;0.62;2.37;0.90;;;23.80;36.90;;;;;;2256096;61;20384;-58
2021/08/08 03:51:55;0.00;0.00;0.62;0.00;0.00;0.62;1.47;0.90;;;23.80;36.90;;;;;;2255348;61;20560;-57
2021/08/08 03:54:22;0.00;0.00;0.62;0.00;0.00;0.62;2.10;1.10;;;23.80;36.90;;;;;;2256247;61;20361;-60
2021/08/08 03:56:48;0.00;0.00;0.62;0.00;0.00;0.62;2.17;1.27;;;23.80;36.90;;;;;;2253499;61;20384;-59
2021/08/08 03:59:15;0.00;0.00;0.62;0.00;0.00;0.62;1.60;0.87;;;23.80;36.90;;;;;;2255235;61;20357;-60
2021/08/08 04:01:41;0.00;0.00;0.62;0.00;0.00;0.62;2.37;1.20;;;23.80;37.00;;;;;;2253016;61;20380;-56
2021/08/08 04:04:08;0.00;0.00;0.62;0.00;0.00;0.62;1.80;1.10;;;23.70;36.90;;;;;;2256064;61;20428;-56
2021/08/08 04:06:34;0.00;0.00;0.62;0.00;0.00;0.62;1.63;0.90;;;23.70;37.60;;;;;;2255070;61;20607;-55
2021/08/08 04:09:02;0.00;0.00;0.62;0.00;0.00;0.62;1.33;0.93;;;23.70;37.00;;;;;;2256179;61;20353;-54
2021/08/08 04:11:29;0.00;0.00;0.62;0.00;0.00;0.62;1.90;1.20;;;23.70;37.10;;;;;;2253381;61;20427;-56
2021/08/08 04:13:56;0.00;0.00;0.62;0.00;0.00;0.62;1.90;1.07;;;23.70;37.20;;;;;;2255293;61;20702;-58
2021/08/08 04:16:23;0.00;0.00;0.62;0.00;0.00;0.62;1.77;0.90;;;23.60;37.10;;;;;;2252950;61;20384;-59
2021/08/08 04:18:50;0.00;0.00;0.62;0.00;0.00;0.62;1.50;1.07;;;23.60;37.10;;;;;;2256128;61;20359;-57
2021/08/08 04:21:16;0.00;0.00;0.62;0.00;0.00;0.62;2.20;1.20;;;23.60;37.20;;;;;;2255129;61;20384;-60
2021/08/08 04:23:44;0.00;0.00;0.62;0.00;0.00;0.62;1.50;0.83;;;23.60;37.30;;;;;;2256223;61;20428;-57
2021/08/08 04:26:12;0.00;0.00;0.62;0.00;0.00;0.62;2.20;1.30;;;23.50;37.30;;;;;;2256119;61;20572;-56
2021/08/08 04:28:41;0.00;0.00;0.62;0.00;0.00;0.62;1.87;1.40;;;23.50;37.30;;;;;;2254980;61;20364;-59
2021/08/08 04:31:10;0.00;0.00;0.62;0.00;0.00;0.62;2.70;1.10;;;23.50;37.30;;;;;;2256193;61;20721;-57
2021/08/08 04:33:39;0.00;0.00;0.62;0.00;0.00;0.62;3.70;1.43;;;23.50;37.40;;;;;;2252864;61;20371;-58
2021/08/08 04:36:06;0.00;0.00;0.62;0.00;0.00;0.62;2.37;1.20;;;23.50;37.40;;;;;;2255286;61;20408;-57
2021/08/08 04:38:33;0.00;0.00;0.62;0.00;0.00;0.62;1.90;1.07;;;23.50;37.50;;;;;;2256068;61;20460;-57
2021/08/08 04:41:01;0.00;0.00;0.62;0.00;0.00;0.62;2.00;1.40;;;23.50;37.50;;;;;;2256044;61;20434;-59
2021/08/08 04:43:29;0.00;0.00;0.62;0.00;0.00;0.62;1.50;1.00;;;23.50;37.50;;;;;;2255172;61;20435;-57
2021/08/08 04:45:56;0.00;0.00;0.62;0.00;0.00;0.62;2.30;1.10;;;23.40;37.50;;;;;;2256136;61;20407;-57
2021/08/08 04:48:22;0.00;0.00;0.62;0.00;0.00;0.62;2.13;1.40;;;23.40;37.50;;;;;;2252746;61;20701;-59
2021/08/08 04:50:50;0.00;0.00;0.62;0.00;0.00;0.62;2.37;1.27;;;23.50;37.60;;;;;;2255031;61;20400;-59
2021/08/08 04:53:18;0.00;0.00;0.62;0.00;0.00;0.62;2.43;1.40;;;23.50;37.70;;;;;;2256195;61;20360;-58
2021/08/08 04:55:47;0.00;0.00;0.62;0.00;0.00;0.62;4.33;1.60;;;23.40;37.60;;;;;;2256119;61;20732;-59
2021/08/08 04:58:14;0.00;0.00;0.62;0.00;0.00;0.62;3.10;1.40;;;23.50;37.70;;;;;;2252003;61;20379;-60
2021/08/08 05:00:42;0.00;0.00;0.62;0.00;0.00;0.62;2.87;1.33;;;23.40;37.70;;;;;;2255947;61;20379;-60
2021/08/08 05:03:08;0.00;0.00;0.62;0.00;0.00;0.62;2.90;1.67;;;23.40;37.70;;;;;;2256005;61;20365;-61
2021/08/08 05:05:36;0.00;0.00;0.62;0.00;0.00;0.62;2.00;1.30;;;23.40;37.70;;;;;;2255151;61;20359;-60
2021/08/08 05:08:04;0.00;0.00;0.62;0.00;0.00;0.62;2.30;1.60;;;23.40;37.70;;;;;;2253339;61;20356;-60
2021/08/08 05:10:33;0.00;0.00;0.62;0.00;0.00;0.62;2.27;1.40;;;23.40;37.80;;;;;;2255760;61;20381;-60
2021/08/08 05:13:00;0.00;0.00;0.62;0.00;0.00;0.62;2.50;1.37;;;23.40;37.80;;;;;;2252482;61;20689;-60
2021/08/08 05:15:26;0.00;0.00;0.62;0.00;0.00;0.62;2.67;1.60;;;23.40;37.80;;;;;;2256132;61;20992;-60
2021/08/08 05:17:55;0.00;0.00;0.62;0.00;0.00;0.62;2.23;1.53;;;23.40;37.80;;;;;;2256684;61;20430;-60
2021/08/08 05:20:22;0.00;0.00;0.62;0.00;0.00;0.62;2.93;1.30;;;23.30;37.80;;;;;;2255715;61;20757;-60
2021/08/08 05:22:49;0.00;0.00;0.62;0.00;0.00;0.62;2.30;1.37;;;23.40;37.90;;;;;;2253463;61;20441;-60
2021/08/08 05:25:16;0.00;0.00;0.62;0.00;0.00;0.62;2.73;1.50;;;23.30;38.50;;;;;;2256580;61;20359;-60
2021/08/08 05:27:43;0.00;0.00;0.62;0.00;0.00;0.62;2.33;1.40;;;23.30;37.90;;;;;;2252931;61;20412;-60
2021/08/08 05:30:13;0.00;0.00;0.62;0.00;0.00;0.62;1.60;1.20;;;23.30;37.90;;;;;;2256576;61;20380;-60
2021/08/08 05:32:40;0.00;0.00;0.62;0.00;0.00;0.62;1.57;1.20;;;23.40;38.20;;;;;;2256576;61;20685;-60
2021/08/08 05:35:10;0.00;0.00;0.62;0.00;0.00;0.62;1.90;1.30;;;23.30;38.20;;;;;;2252581;61;20612;-60
2021/08/08 05:37:37;0.00;0.00;0.62;0.00;0.00;0.62;1.90;1.37;;;23.30;38.30;;;;;;2253918;61;20371;-60
2021/08/08 05:40:07;0.00;0.00;0.62;0.00;0.00;0.62;1.60;1.20;;;23.30;38.30;;;;;;2256459;61;20377;-59
2021/08/08 05:42:38;0.00;0.00;0.62;0.00;0.00;0.62;1.77;1.60;;;23.30;38.30;;;;;;2255927;61;20353;-59
2021/08/08 05:45:07;0.00;0.00;0.62;0.00;0.00;0.62;3.23;1.60;;;23.30;38.30;;;;;;2256566;61;20444;-60
2021/08/08 05:47:34;0.00;0.00;0.62;0.00;0.00;0.62;2.80;1.73;;;23.20;38.20;;;;;;2253345;61;20447;-60
2021/08/08 05:50:00;0.00;0.00;0.62;0.00;0.00;0.62;3.30;1.90;;;23.30;38.30;;;;;;2252892;61;20379;-59
2021/08/08 05:52:29;0.00;0.00;0.62;0.00;0.00;0.62;3.03;1.80;;;23.20;38.20;;;;;;2253340;61;20367;-61
2021/08/08 05:54:55;0.00;0.00;0.62;0.00;0.00;0.62;2.07;1.50;;;23.20;38.30;;;;;;2253747;61;20357;-60
2021/08/08 05:57:22;0.00;0.00;0.62;0.00;0.00;0.62;2.53;1.83;;;23.20;38.20;;;;;;2255812;61;20369;-60
2021/08/08 05:59:49;0.00;0.00;0.62;0.00;0.00;0.62;2.90;1.70;;;23.20;38.20;;;;;;2253711;61;20484;-60
2021/08/08 06:02:15;0.00;0.00;0.62;0.00;0.00;0.62;1.73;1.40;;;23.20;38.40;;;;;;2256655;61;20361;-60
2021/08/08 06:04:42;0.00;0.00;0.62;0.00;0.00;0.62;2.60;1.73;;;23.20;38.50;;;;;;2255639;61;20704;-60
2021/08/08 06:07:08;0.00;0.00;0.62;0.00;0.00;0.62;3.37;1.83;;;23.20;38.60;;;;;;2256401;61;20356;-60
2021/08/08 06:09:36;0.00;0.00;0.62;0.00;0.00;0.62;2.20;1.90;;;23.20;38.60;;;;;;2256205;61;20360;-60
2021/08/08 06:12:04;0.00;0.00;0.62;0.00;0.00;0.62;2.30;1.60;;;23.20;38.60;;;;;;2255669;61;20361;-60
2021/08/08 06:14:30;0.00;0.00;0.62;0.00;0.00;0.62;3.67;1.60;;;23.20;38.60;;;;;;2256526;61;20441;-61
2021/08/08 06:16:57;0.00;0.00;0.62;0.00;0.00;0.62;4.60;2.30;;;23.20;38.50;;;;;;2256537;61;20640;-61
2021/08/08 06:19:24;0.00;0.00;0.62;0.00;0.00;0.62;2.30;2.00;;;23.20;38.40;;;;;;2255560;61;20372;-60
2021/08/08 06:21:51;0.00;0.00;0.62;0.00;0.00;0.62;3.00;2.17;;;23.20;38.30;;;;;;2256297;61;20388;-60
2021/08/08 06:24:19;0.00;0.00;0.62;0.00;0.00;0.62;3.70;2.20;;;23.20;38.20;;;;;;2256509;61;20731;-60
2021/08/08 06:26:47;0.00;0.00;0.62;0.00;0.00;0.62;2.40;2.20;;;23.20;38.20;;;;;;2255469;61;20357;-60
2021/08/08 06:29:16;0.00;0.00;0.62;0.00;0.00;0.62;4.20;2.30;;;23.20;38.20;;;;;;2256197;61;20432;-60
2021/08/08 06:31:44;0.00;0.00;0.62;0.00;0.00;0.62;4.07;2.27;;;23.20;38.20;;;;;;2253251;61;20381;-60
2021/08/08 06:34:11;0.00;0.00;0.62;0.00;0.00;0.62;3.40;1.87;;;23.20;38.20;;;;;;2252715;61;20357;-59
2021/08/08 06:36:37;0.00;0.00;0.62;0.00;0.00;0.62;3.73;2.40;;;23.20;38.20;;;;;;2256464;61;20384;-59
2021/08/08 06:39:05;0.00;0.00;0.62;0.00;0.00;0.62;3.87;2.20;;;23.20;38.20;;;;;;2253652;61;20372;-61
2021/08/08 06:41:32;0.00;0.00;0.62;0.00;0.00;0.62;3.00;2.27;;;23.20;38.20;;;;;;2255424;61;20473;-59
2021/08/08 06:44:01;0.00;0.00;0.62;0.00;0.00;0.62;4.03;2.50;;;23.20;38.20;;;;;;2253166;61;20357;-60
2021/08/08 06:46:27;0.00;0.00;0.62;0.00;0.00;0.62;3.17;2.03;;;23.20;38.20;;;;;;2256402;61;20705;-60
2021/08/08 06:48:54;0.00;0.00;0.62;0.00;0.00;0.62;5.80;2.63;;;23.20;38.20;;;;;;2252034;61;20365;-60
2021/08/08 06:51:21;0.00;0.00;0.62;0.00;0.00;0.62;3.47;2.30;;;23.20;38.20;;;;;;2256276;61;20381;-60
2021/08/08 06:53:48;0.00;0.00;0.62;0.00;0.00;0.62;5.30;2.20;;;23.20;38.20;;;;;;2256475;61;20364;-59
2021/08/08 06:56:14;0.00;0.00;0.62;0.00;0.00;0.62;2.93;2.10;;;23.20;38.30;;;;;;2255475;61;20403;-60
2021/08/08 06:58:41;0.00;0.00;0.62;0.00;0.00;0.62;4.53;2.60;;;23.20;38.20;;;;;;2256347;61;20368;-61
2021/08/08 07:01:09;0.00;0.00;0.62;0.00;0.00;0.62;5.33;2.27;;;23.20;38.20;;;;;;2253522;61;20423;-60
2021/08/08 07:03:35;0.00;0.00;0.62;0.00;0.00;0.62;2.47;2.20;;;23.20;38.00;;;;;;2255382;61;20432;-60
2021/08/08 07:06:02;0.00;0.00;0.62;0.00;0.00;0.62;3.17;2.43;;;23.20;37.90;;;;;;2256307;61;20361;-60
2021/08/08 07:08:29;0.00;0.00;0.62;0.00;0.00;0.62;3.30;2.70;;;23.20;37.80;;;;;;2252965;61;20353;-60
2021/08/08 07:10:55;0.00;0.00;0.62;0.00;0.00;0.62;3.83;2.23;;;23.20;37.80;;;;;;2255312;61;20377;-60
2021/08/08 07:13:22;0.00;0.00;0.62;0.00;0.00;0.62;2.83;2.20;;;23.20;37.70;;;;;;2256409;61;20353;-60
2021/08/08 07:15:50;0.00;0.00;0.62;0.00;0.00;0.62;4.70;2.30;;;23.30;37.80;;;;;;2256334;61;20412;-60
2021/08/08 07:18:18;0.00;0.00;0.62;0.00;0.00;0.62;2.77;1.60;;;23.20;37.60;;;;;;2252174;61;20352;-60
2021/08/08 07:20:45;0.00;0.00;0.62;0.00;0.00;0.62;3.23;2.00;;;23.30;37.70;;;;;;2253000;61;20401;-59
2021/08/08 07:23:11;0.00;0.00;0.62;0.00;0.00;0.62;3.50;2.10;;;23.30;37.60;;;;;;2253016;61;20449;-60
2021/08/08 07:25:38;0.00;0.00;0.62;0.00;0.00;0.62;3.07;2.17;;;23.30;37.60;;;;;;2255348;61;20356;-60
2021/08/08 07:28:05;0.00;0.00;0.62;0.00;0.00;0.62;4.20;2.40;;;23.30;37.60;;;;;;2256415;61;20364;-60
2021/08/08 07:30:32;0.00;0.00;0.62;0.00;0.00;0.62;4.63;2.50;;;23.30;37.50;;;;;;2252874;61;20381;-57
2021/08/08 07:32:59;0.00;0.00;0.62;0.00;0.00;0.62;4.30;2.37;;;23.30;37.50;;;;;;2255322;61;20365;-56
2021/08/08 07:35:27;0.00;0.00;0.62;0.00;0.00;0.62;3.03;2.23;;;23.30;37.50;;;;;;2256291;61;20376;-57
2021/08/08 07:37:54;0.00;0.00;0.62;0.00;0.00;0.62;4.43;2.57;;;23.30;37.50;;;;;;2256338;61;20452;-56
2021/08/08 07:40:20;0.00;0.00;0.62;0.00;0.00;0.62;3.40;2.43;;;23.30;37.50;;;;;;2251870;61;20384;-56
2021/08/08 07:42:48;0.00;0.00;0.62;0.00;0.00;0.62;3.40;2.17;;;23.30;37.30;;;;;;2256271;61;20350;-57
2021/08/08 07:45:15;0.00;0.00;0.62;0.00;0.00;0.62;3.70;2.43;;;23.30;37.30;;;;;;2252919;61;20747;-59
2021/08/08 07:47:42;0.00;0.00;0.62;0.00;0.00;0.62;3.93;2.33;;;23.40;37.40;;;;;;2251995;61;20590;-58
2021/08/08 07:50:10;0.00;0.00;0.62;0.00;0.00;0.62;3.30;2.67;;;23.40;37.50;;;;;;2256110;61;20380;-58
2021/08/08 07:52:38;0.00;0.00;0.62;0.00;0.00;0.62;2.67;2.10;;;23.40;37.50;;;;;;2253008;61;20364;-68
2021/08/08 07:55:06;0.00;0.00;0.62;0.00;0.00;0.62;4.77;2.40;;;23.40;37.50;;;;;;2255401;61;20365;-60
2021/08/08 07:57:34;0.00;0.00;0.62;0.00;0.00;0.62;4.00;2.20;;;23.40;37.50;;;;;;2256300;61;20371;-58
2021/08/08 08:00:00;0.00;0.00;0.62;0.00;0.00;0.62;3.00;2.40;;;23.50;37.70;;;;;;2256177;61;20427;-60
2021/08/08 08:02:29;0.00;0.00;0.62;0.00;0.00;0.62;5.00;2.70;;;23.50;37.60;;;;;;2255342;61;20689;-59
2021/08/08 08:04:56;0.00;0.00;0.62;0.00;0.00;0.62;3.10;2.00;;;23.60;37.70;;;;;;2256246;61;20356;-60
2021/08/08 08:07:23;0.00;0.00;0.62;0.00;0.00;0.62;2.73;2.30;;;23.60;37.60;;;;;;2252870;61;20467;-58
2021/08/08 08:09:51;0.00;0.00;0.62;0.00;0.00;0.62;5.20;2.10;;;23.60;37.50;;;;;;2251822;61;20691;-60
2021/08/08 08:12:17;0.00;0.00;0.62;0.00;0.00;0.62;4.07;2.13;;;23.70;37.50;;;;;;2256166;61;20394;-59
2021/08/08 08:14:44;0.00;0.00;0.62;0.00;0.00;0.62;3.27;2.83;;;23.70;37.40;;;;;;2256280;61;20570;-59
2021/08/08 08:17:11;0.00;0.00;0.62;0.00;0.00;0.62;3.30;2.50;;;23.70;37.30;;;;;;2255219;61;20384;-57
2021/08/08 08:19:37;0.00;0.00;0.62;0.00;0.00;0.62;4.10;2.50;;;23.70;37.30;;;;;;2256034;61;20403;-54
2021/08/08 08:22:04;0.00;0.00;0.62;0.00;0.00;0.62;4.97;2.63;;;23.80;37.30;;;;;;2252819;61;20369;-58
2021/08/08 08:24:31;0.00;0.00;0.62;0.00;0.00;0.62;5.77;2.87;;;23.80;37.20;;;;;;2251959;61;20363;-59
2021/08/08 08:26:59;0.00;0.00;0.62;0.00;0.00;0.62;3.53;2.60;;;23.80;37.20;;;;;;2253212;61;20367;-56
2021/08/08 08:29:25;0.00;0.00;0.62;0.00;0.00;0.62;4.87;3.17;;;23.80;37.10;;;;;;2256082;61;20380;-59
2021/08/08 08:31:52;0.00;0.00;0.62;0.00;0.00;0.62;4.57;3.53;;;23.90;37.10;;;;;;2252431;61;20701;-58
2021/08/08 08:34:18;0.00;0.00;0.62;0.00;0.00;0.62;3.20;2.70;;;23.90;37.00;;;;;;2253418;61;20379;-55
2021/08/08 08:36:45;0.00;0.00;0.62;0.00;0.00;0.62;4.23;3.30;;;23.90;37.00;;;;;;2256128;61;20376;-55
2021/08/08 08:39:12;0.00;0.00;0.62;0.00;0.00;0.62;4.40;2.90;;;24.00;37.00;;;;;;2255200;61;20598;-57
2021/08/08 08:41:40;0.00;0.00;0.62;0.00;0.00;0.62;4.73;2.77;;;24.00;37.00;;;;;;2256037;61;20403;-58
2021/08/08 08:44:08;0.00;0.00;0.62;0.00;0.00;0.62;6.63;3.20;;;24.00;36.90;;;;;;2252838;61;20399;-52
2021/08/08 08:46:36;0.00;0.00;0.62;0.00;0.00;0.62;4.60;4.00;;;24.00;36.90;;;;;;2251750;61;20364;-58
2021/08/08 08:49:05;0.00;0.00;0.62;0.00;0.00;0.62;2.97;2.67;;;24.10;36.90;;;;;;2256068;61;20466;-59
2021/08/08 08:51:40;0.00;0.00;0.62;0.00;0.00;0.62;5.13;3.13;;;24.10;36.90;;;;;;2256392;61;20474;-59
2021/08/08 08:54:08;0.00;0.00;0.62;0.00;0.00;0.62;4.13;2.80;;;24.10;36.90;;;;;;2252761;61;20356;-57
2021/08/08 08:56:35;0.00;0.00;0.62;0.00;0.00;0.62;4.57;2.80;;;24.10;36.80;;;;;;2254020;61;20384;-59
2021/08/08 08:59:03;0.00;0.00;0.62;0.00;0.00;0.62;4.10;3.37;;;24.20;36.80;;;;;;2256794;61;20407;-49
2021/08/08 09:01:31;0.00;0.00;0.62;0.00;0.00;0.62;5.97;3.30;;;24.20;36.70;;;;;;2255879;61;20456;-57
2021/08/08 09:03:59;0.00;0.00;0.62;0.00;0.00;0.62;4.60;2.93;;;24.20;36.70;;;;;;2256792;61;20360;-58
2021/08/08 09:06:26;0.00;0.00;0.62;0.00;0.00;0.62;4.70;3.20;;;24.20;36.60;;;;;;2256671;61;20379;-61
2021/08/08 09:08:52;0.00;0.00;0.62;0.00;0.00;0.62;4.87;2.93;;;24.30;36.70;;;;;;2255833;61;20412;-57
2021/08/08 09:11:19;0.00;0.00;0.62;0.00;0.00;0.62;3.73;2.80;;;24.30;36.60;;;;;;2256720;61;20460;-57
2021/08/08 09:13:53;0.00;0.00;0.62;0.00;0.00;0.62;5.10;2.97;;;24.30;36.50;;;;;;2256598;61;20468;-54
2021/08/08 09:16:22;0.00;0.00;0.62;0.00;0.00;0.62;4.63;3.20;;;24.30;36.50;;;;;;2256169;61;20791;-57
2021/08/08 09:18:53;0.00;0.00;0.62;0.00;0.00;0.62;2.93;2.70;;;24.30;36.40;;;;;;2253781;61;20694;-60
2021/08/08 09:21:24;0.00;0.00;0.62;0.00;0.00;0.62;4.53;2.70;;;24.40;36.50;;;;;;2257093;61;20391;-61
2021/08/08 09:23:55;0.00;0.00;0.62;0.00;0.00;0.62;4.30;3.13;;;24.40;36.40;;;;;;2253220;61;20369;-56
2021/08/08 09:26:31;0.00;0.00;0.62;0.00;0.00;0.62;5.60;2.93;;;24.40;36.30;;;;;;2257014;61;20685;-57
2021/08/08 09:29:07;0.00;0.00;0.62;0.00;0.00;0.62;4.17;3.10;;;24.40;36.20;;;;;;2256990;61;20689;-58
2021/08/08 09:31:43;0.00;0.00;0.62;0.00;0.00;0.62;5.17;2.73;;;24.40;36.10;;;;;;2256033;61;20395;-58
2021/08/08 09:34:23;0.00;0.00;0.62;0.00;0.00;0.62;2.93;2.60;;;24.50;36.10;;;;;;2257122;61;20681;-60
2021/08/08 09:36:50;0.00;0.00;0.62;0.00;0.00;0.62;5.63;2.87;;;24.50;36.00;;;;;;2254295;61;20496;-58
2021/08/08 09:39:28;0.00;0.00;0.62;0.00;0.00;0.62;4.13;2.70;;;24.50;36.00;;;;;;2253216;61;20356;-60
2021/08/08 09:42:06;0.00;0.00;0.62;0.00;0.00;0.62;5.57;2.87;;;24.50;35.70;;;;;;2253728;61;20353;-62
2021/08/08 09:44:32;0.00;0.00;0.62;0.00;0.00;0.62;6.83;3.17;;;24.50;35.60;;;;;;2254184;61;20357;-57